createdAt,value
2023-05-19T00:00:15.540Z,26.97
2023-05-19T00:02:50.501Z,27.54
2023-05-19T00:05:19.947Z,27.05
2023-05-19T00:07:59.884Z,26.79
2023-05-19T00:10:32.513Z,27.23
2023-05-19T00:13:02.417Z,27.37
2023-05-19T00:15:32.065Z,27.12
2023-05-19T00:18:01.211Z,27.07
2023-05-19T00:20:30.492Z,27.21
2023-05-19T00:22:59.834Z,27.27
2023-05-19T00:25:28.695Z,27.26
2023-05-19T00:28:00.016Z,27.20
2023-05-19T00:30:31.737Z,26.91
2023-05-19T00:33:03.777Z,26.98
2023-05-19T00:35:32.911Z,26.57
2023-05-19T00:38:02.065Z,26.58
2023-05-19T00:40:32.701Z,26.70
2023-05-19T00:43:01.941Z,27.09
2023-05-19T00:45:30.957Z,27.07
2023-05-19T00:48:00.238Z,26.93
2023-05-19T00:50:29.666Z,26.81
2023-05-19T00:52:58.950Z,26.89
2023-05-19T00:55:30.443Z,26.85
2023-05-19T00:57:59.783Z,27.15
2023-05-19T01:00:29.049Z,27.13
2023-05-19T01:02:58.469Z,27.12
2023-05-19T01:05:28.072Z,27.09
2023-05-19T01:07:57.718Z,27.22
2023-05-19T01:10:27.021Z,26.87
2023-05-19T01:12:56.304Z,26.70
2023-05-19T01:15:27.951Z,26.97
2023-05-19T01:18:08.191Z,27.03
2023-05-19T01:20:53.386Z,27.01
2023-05-19T01:23:39.746Z,26.87
2023-05-19T01:26:33.373Z,27.14
2023-05-19T01:29:35.583Z,27.00
2023-05-19T01:32:07.847Z,27.25
2023-05-19T01:34:43.199Z,27.20
2023-05-19T01:37:14.470Z,27.18
2023-05-19T01:39:45.700Z,27.51
2023-05-19T01:42:16.537Z,27.45
2023-05-19T01:44:46.370Z,27.35
2023-05-19T01:47:15.768Z,27.28
2023-05-19T01:49:45.068Z,27.24
2023-05-19T01:52:14.030Z,27.27
2023-05-19T01:54:43.180Z,27.00
2023-05-19T01:57:34.839Z,27.08
2023-05-19T02:00:32.005Z,26.93
2023-05-19T02:03:18.669Z,26.87
2023-05-19T02:05:47.338Z,26.77
2023-05-19T02:08:49.552Z,26.55
2023-05-19T02:11:41.121Z,26.37
2023-05-19T02:14:13.991Z,26.11
2023-05-19T02:16:48.824Z,25.87
2023-05-19T02:19:24.080Z,25.75
2023-05-19T02:21:53.461Z,25.59
2023-05-19T02:24:26.981Z,25.57
2023-05-19T02:26:57.581Z,25.47
2023-05-19T02:29:26.766Z,25.34
2023-05-19T02:31:56.064Z,25.23
2023-05-19T02:34:25.199Z,25.11
2023-05-19T02:36:54.647Z,24.93
2023-05-19T02:39:27.180Z,24.87
2023-05-19T02:41:56.631Z,24.70
2023-05-19T02:44:25.639Z,24.84
2023-05-19T02:46:54.983Z,24.92
2023-05-19T02:49:24.703Z,24.95
2023-05-19T02:51:54.167Z,24.64
2023-05-19T02:54:23.367Z,24.53
2023-05-19T02:56:52.606Z,24.66
2023-05-19T02:59:24.328Z,24.68
2023-05-19T03:02:02.986Z,24.38
2023-05-19T03:04:32.294Z,24.45
2023-05-19T03:07:01.485Z,24.39
2023-05-19T03:09:31.164Z,24.23
2023-05-19T03:12:05.077Z,24.03
2023-05-19T03:14:35.908Z,23.82
2023-05-19T03:17:05.400Z,23.93
2023-05-19T03:19:37.909Z,23.95
2023-05-19T03:22:14.733Z,24.02
2023-05-19T03:24:44.239Z,23.95
2023-05-19T03:27:13.759Z,23.74
2023-05-19T03:29:44.214Z,23.75
2023-05-19T03:32:13.361Z,23.64
2023-05-19T03:34:42.702Z,23.55
2023-05-19T03:37:14.446Z,23.41
2023-05-19T03:39:43.429Z,23.57
2023-05-19T03:42:12.652Z,23.70
2023-05-19T03:44:41.824Z,23.53
2023-05-19T03:47:12.045Z,23.58
2023-05-19T03:49:59.508Z,23.46
2023-05-19T03:52:54.604Z,23.05
2023-05-19T03:55:30.742Z,23.09
2023-05-19T03:58:00.046Z,23.02
2023-05-19T04:00:29.275Z,22.83
2023-05-19T04:02:58.599Z,22.69
2023-05-19T04:05:27.878Z,22.54
2023-05-19T04:07:56.992Z,22.58
2023-05-19T04:10:26.308Z,22.77
2023-05-19T04:12:57.033Z,22.67
2023-05-19T04:15:28.108Z,22.55
2023-05-19T04:17:57.583Z,22.28
2023-05-19T04:20:26.600Z,22.15
2023-05-19T04:22:55.671Z,22.04
2023-05-19T04:25:26.171Z,21.93
2023-05-19T04:27:58.489Z,21.64
2023-05-19T04:30:29.634Z,21.53
2023-05-19T04:33:00.398Z,21.67
2023-05-19T04:35:29.654Z,21.77
2023-05-19T04:37:59.991Z,22.18
2023-05-19T04:40:32.697Z,21.85
2023-05-19T04:43:03.005Z,21.56
2023-05-19T04:45:34.155Z,21.40
2023-05-19T04:48:05.181Z,21.63
2023-05-19T04:50:35.162Z,21.30
2023-05-19T04:53:04.619Z,21.15
2023-05-19T04:55:34.600Z,21.28
2023-05-19T04:58:05.255Z,21.47
2023-05-19T05:00:36.670Z,21.47
2023-05-19T05:03:09.094Z,21.59
2023-05-19T05:05:38.341Z,21.26
2023-05-19T05:08:08.046Z,21.10
2023-05-19T05:10:42.835Z,21.01
2023-05-19T05:13:12.363Z,20.64
2023-05-19T05:15:42.127Z,20.60
2023-05-19T05:18:12.674Z,20.40
2023-05-19T05:20:45.204Z,20.53
2023-05-19T05:23:17.687Z,20.37
2023-05-19T05:25:49.354Z,20.39
2023-05-19T05:28:27.876Z,20.27
2023-05-19T05:31:20.320Z,20.35
2023-05-19T05:33:49.807Z,19.85
2023-05-19T05:36:22.721Z,19.77
2023-05-19T05:38:55.166Z,19.87
2023-05-19T05:41:24.992Z,19.71
2023-05-19T05:43:55.138Z,19.51
2023-05-19T05:46:25.701Z,19.51
2023-05-19T05:48:56.920Z,19.88
2023-05-19T05:51:26.682Z,19.48
2023-05-19T05:53:57.232Z,19.52
2023-05-19T05:56:38.026Z,19.25
2023-05-19T05:59:09.917Z,19.10
2023-05-19T06:01:42.950Z,19.48
2023-05-19T06:04:13.084Z,19.32
2023-05-19T06:06:42.309Z,19.33
2023-05-19T06:09:11.567Z,19.38
2023-05-19T06:11:41.180Z,19.25
2023-05-19T06:14:10.901Z,19.35
2023-05-19T06:16:58.213Z,19.13
2023-05-19T06:19:27.907Z,19.20
2023-05-19T06:21:56.982Z,19.10
2023-05-19T06:24:26.571Z,18.71
2023-05-19T06:26:55.923Z,18.96
2023-05-19T06:29:25.184Z,18.90
2023-05-19T06:31:56.185Z,18.88
2023-05-19T06:34:25.366Z,18.48
2023-05-19T06:36:55.550Z,18.75
2023-05-19T06:39:25.831Z,18.38
2023-05-19T06:41:55.325Z,18.45
2023-05-19T06:44:42.677Z,18.14
2023-05-19T06:47:14.168Z,18.27
2023-05-19T06:49:43.937Z,18.30
2023-05-19T06:52:13.565Z,18.22
2023-05-19T06:54:42.879Z,18.04
2023-05-19T06:57:12.607Z,18.12
2023-05-19T06:59:44.861Z,17.67
2023-05-19T07:02:14.605Z,17.64
2023-05-19T07:04:43.994Z,17.81
2023-05-19T07:07:17.519Z,17.97
2023-05-19T07:09:49.734Z,18.04
2023-05-19T07:12:20.042Z,17.49
2023-05-19T07:14:49.317Z,17.55
2023-05-19T07:17:19.106Z,17.67
2023-05-19T07:19:48.249Z,17.42
2023-05-19T07:22:18.106Z,17.69
2023-05-19T07:24:47.368Z,17.61
2023-05-19T07:27:16.576Z,17.54
2023-05-19T07:29:45.904Z,17.74
2023-05-19T07:32:15.103Z,17.53
2023-05-19T07:34:47.770Z,17.42
2023-05-19T07:37:17.763Z,17.32
2023-05-19T07:39:49.612Z,17.35
2023-05-19T07:42:18.725Z,17.27
2023-05-19T07:44:48.041Z,17.27
2023-05-19T07:47:17.071Z,17.20
2023-05-19T07:49:46.075Z,17.31
2023-05-19T07:52:15.335Z,17.32
2023-05-19T07:54:44.287Z,17.43
2023-05-19T07:57:13.357Z,17.27
2023-05-19T07:59:42.371Z,17.17
2023-05-19T08:02:11.657Z,16.97
2023-05-19T08:04:40.718Z,17.09
2023-05-19T08:07:09.804Z,17.12
2023-05-19T08:09:38.915Z,17.09
2023-05-19T08:12:08.144Z,16.80
2023-05-19T08:14:38.399Z,16.88
2023-05-19T08:17:07.666Z,16.88
2023-05-19T08:19:36.867Z,16.63
2023-05-19T08:22:06.187Z,16.55
2023-05-19T08:24:35.521Z,16.69
2023-05-19T08:27:05.704Z,16.72
2023-05-19T08:29:34.915Z,16.46
2023-05-19T08:32:04.818Z,16.45
2023-05-19T08:34:33.966Z,16.38
2023-05-19T08:37:04.007Z,16.45
2023-05-19T08:39:35.043Z,16.38
2023-05-19T08:42:04.583Z,16.44
2023-05-19T08:44:34.088Z,16.14
2023-05-19T08:47:15.285Z,16.17
2023-05-19T08:49:52.521Z,15.87
2023-05-19T08:52:28.417Z,15.78
2023-05-19T08:55:06.696Z,16.09
2023-05-19T08:57:36.173Z,16.13
2023-05-19T09:00:15.511Z,15.94
2023-05-19T09:02:55.169Z,15.78
2023-05-19T09:05:34.989Z,15.44
2023-05-19T09:08:05.893Z,15.69
2023-05-19T09:10:35.290Z,15.83
2023-05-19T09:13:04.287Z,15.97
2023-05-19T09:15:35.678Z,15.49
2023-05-19T09:18:11.231Z,15.39
2023-05-19T09:20:47.046Z,15.75
2023-05-19T09:23:22.128Z,15.57
2023-05-19T09:25:57.667Z,15.39
2023-05-19T09:28:34.446Z,15.19
2023-05-19T09:31:11.165Z,15.54
2023-05-19T09:33:45.597Z,15.62
2023-05-19T09:36:15.531Z,15.43
2023-05-19T09:38:44.469Z,15.72
2023-05-19T09:41:16.287Z,15.65
2023-05-19T09:43:58.277Z,15.55
2023-05-19T09:46:29.187Z,15.45
2023-05-19T09:49:01.305Z,15.48
2023-05-19T09:51:32.875Z,15.45
2023-05-19T09:54:02.955Z,15.31
2023-05-19T09:56:40.349Z,15.16
2023-05-19T09:59:09.765Z,15.49
2023-05-19T10:01:42.062Z,15.36
2023-05-19T10:04:11.452Z,15.38
2023-05-19T10:06:41.113Z,15.00
2023-05-19T10:09:10.456Z,15.35
2023-05-19T10:11:40.042Z,15.26
2023-05-19T10:14:09.912Z,14.87
2023-05-19T10:16:39.789Z,14.94
2023-05-19T10:19:10.258Z,15.15
2023-05-19T10:21:39.504Z,14.88
2023-05-19T10:24:09.024Z,14.82
2023-05-19T10:26:41.253Z,14.73
2023-05-19T10:29:11.806Z,14.85
2023-05-19T10:31:42.165Z,14.76
2023-05-19T10:34:13.872Z,14.87
2023-05-19T10:36:48.794Z,14.88
2023-05-19T10:39:29.948Z,14.81
2023-05-19T10:42:17.720Z,14.85
2023-05-19T10:45:11.215Z,14.58
2023-05-19T10:47:42.977Z,14.72
2023-05-19T10:50:12.806Z,14.76
2023-05-19T10:52:42.088Z,14.71
2023-05-19T10:55:18.544Z,14.62
2023-05-19T10:58:12.266Z,14.53
2023-05-19T11:00:42.611Z,14.55
2023-05-19T11:03:15.699Z,14.58
2023-05-19T11:05:50.900Z,14.47
2023-05-19T11:08:34.425Z,14.35
2023-05-19T11:11:19.185Z,14.29
2023-05-19T11:13:57.610Z,14.44
2023-05-19T11:16:31.330Z,14.50
2023-05-19T11:19:01.273Z,14.68
2023-05-19T11:22:23.504Z,14.47
2023-05-19T11:25:04.088Z,14.49
2023-05-19T11:27:39.432Z,14.53
2023-05-19T11:30:28.480Z,14.52
2023-05-19T11:33:35.670Z,14.45
2023-05-19T11:36:24.166Z,14.04
2023-05-19T11:38:53.982Z,14.10
2023-05-19T11:42:14.337Z,13.95
2023-05-19T11:45:13.982Z,13.71
2023-05-19T11:48:00.813Z,14.00
2023-05-19T11:50:32.906Z,14.16
2023-05-19T11:53:03.466Z,14.04
2023-05-19T11:55:32.805Z,14.18
2023-05-19T11:58:04.718Z,13.88
2023-05-19T12:00:41.140Z,14.13
2023-05-19T12:03:10.861Z,14.05
2023-05-19T12:05:46.735Z,14.23
2023-05-19T12:08:19.537Z,14.38
2023-05-19T12:10:53.412Z,14.40
2023-05-19T12:13:24.228Z,14.43
2023-05-19T12:15:54.287Z,14.40
2023-05-19T12:18:23.309Z,14.44
2023-05-19T12:20:52.900Z,14.42
2023-05-19T12:23:22.101Z,14.33
2023-05-19T12:25:51.522Z,14.33
2023-05-19T12:28:21.415Z,14.30
2023-05-19T12:30:53.197Z,14.25
2023-05-19T12:33:23.698Z,14.26
2023-05-19T12:35:53.064Z,14.21
2023-05-19T12:38:22.797Z,14.14
2023-05-19T12:40:52.046Z,14.21
2023-05-19T12:43:22.997Z,14.26
2023-05-19T12:45:52.093Z,14.23
2023-05-19T12:48:24.518Z,14.29
2023-05-19T12:50:55.341Z,14.29
2023-05-19T12:53:27.162Z,14.19
2023-05-19T12:55:57.182Z,14.26
2023-05-19T12:58:26.427Z,13.90
2023-05-19T13:01:01.805Z,13.98
2023-05-19T13:03:31.125Z,14.06
2023-05-19T13:06:00.666Z,14.44
2023-05-19T13:08:30.627Z,14.45
2023-05-19T13:10:59.692Z,14.28
2023-05-19T13:13:35.768Z,14.52
2023-05-19T13:16:04.965Z,14.28
2023-05-19T13:18:35.748Z,14.29
2023-05-19T13:21:08.101Z,14.58
2023-05-19T13:23:37.505Z,14.57
2023-05-19T13:26:07.205Z,14.27
2023-05-19T13:28:36.355Z,14.20
2023-05-19T13:31:05.458Z,14.16
2023-05-19T13:33:34.516Z,14.48
2023-05-19T13:36:03.838Z,14.22
2023-05-19T13:38:32.970Z,14.40
2023-05-19T13:41:02.415Z,14.41
2023-05-19T13:43:32.445Z,14.93
2023-05-19T13:46:01.499Z,14.99
2023-05-19T13:48:30.525Z,15.00
2023-05-19T13:51:00.419Z,14.92
2023-05-19T13:53:30.482Z,14.93
2023-05-19T13:56:02.817Z,15.02
2023-05-19T13:58:31.852Z,14.97
2023-05-19T14:01:01.217Z,15.01
2023-05-19T14:03:30.839Z,14.96
2023-05-19T14:05:59.973Z,14.98
2023-05-19T14:08:29.335Z,14.94
2023-05-19T14:10:58.373Z,14.84
2023-05-19T14:13:33.797Z,14.94
2023-05-19T14:16:04.533Z,14.91
2023-05-19T14:18:33.813Z,14.90
2023-05-19T14:21:03.086Z,14.76
2023-05-19T14:23:33.591Z,15.02
2023-05-19T14:26:06.004Z,15.08
2023-05-19T14:28:35.115Z,14.66
2023-05-19T14:31:07.048Z,14.84
2023-05-19T14:33:38.433Z,14.62
2023-05-19T14:36:08.437Z,14.63
2023-05-19T14:38:37.837Z,14.46
2023-05-19T14:41:07.946Z,14.29
2023-05-19T14:43:37.001Z,15.00
2023-05-19T14:46:16.925Z,15.00
2023-05-19T14:48:45.905Z,14.76
2023-05-19T14:51:17.979Z,15.25
2023-05-19T14:53:47.174Z,15.50
2023-05-19T14:56:19.485Z,14.81
2023-05-19T14:58:48.448Z,15.29
2023-05-19T15:01:17.443Z,15.34
2023-05-19T15:03:46.703Z,15.46
2023-05-19T15:06:15.874Z,15.65
2023-05-19T15:08:44.975Z,15.45
2023-05-19T15:11:13.986Z,15.71
2023-05-19T15:13:43.015Z,15.70
2023-05-19T15:18:43.926Z,14.90
2023-05-19T15:21:13.047Z,15.04
2023-05-19T15:23:42.301Z,15.50
2023-05-19T15:26:11.346Z,15.72
2023-05-19T15:28:40.262Z,15.05
2023-05-19T15:31:09.343Z,15.50
2023-05-19T15:33:38.303Z,15.45
2023-05-19T15:36:07.827Z,15.75
2023-05-19T15:38:37.969Z,15.81
2023-05-19T15:41:10.692Z,15.59
2023-05-19T15:43:39.939Z,15.57
2023-05-19T15:46:09.102Z,15.78
2023-05-19T15:48:38.083Z,16.16
2023-05-19T15:51:07.270Z,16.17
2023-05-19T15:53:36.182Z,15.79
2023-05-19T15:56:05.893Z,15.68
2023-05-19T15:58:34.792Z,15.77
2023-05-19T16:01:04.496Z,15.57
2023-05-19T16:03:33.767Z,15.74
2023-05-19T16:06:02.822Z,15.85
2023-05-19T16:08:32.049Z,15.81
2023-05-19T16:11:01.307Z,16.08
2023-05-19T16:13:31.336Z,16.11
2023-05-19T16:16:00.720Z,16.12
2023-05-19T16:18:30.157Z,16.25
2023-05-19T16:20:59.400Z,16.24
2023-05-19T16:23:28.400Z,15.96
2023-05-19T16:25:58.382Z,16.00
2023-05-19T16:28:28.728Z,15.98
2023-05-19T16:31:01.563Z,16.28
2023-05-19T16:33:30.952Z,16.41
2023-05-19T16:36:00.754Z,16.01
2023-05-19T16:38:30.271Z,16.06
2023-05-19T16:40:59.257Z,16.06
2023-05-19T16:43:28.339Z,16.05
2023-05-19T16:45:57.919Z,16.34
2023-05-19T16:48:27.123Z,16.22
2023-05-19T16:51:02.945Z,16.52
2023-05-19T16:53:32.800Z,16.34
2023-05-19T16:56:01.890Z,16.53
2023-05-19T16:58:31.353Z,16.61
2023-05-19T17:01:00.435Z,16.74
2023-05-19T17:03:29.686Z,16.74
2023-05-19T17:05:59.297Z,16.80
2023-05-19T17:08:28.344Z,16.72
2023-05-19T17:10:57.242Z,16.62
2023-05-19T17:13:26.347Z,16.54
2023-05-19T17:15:55.386Z,16.65
2023-05-19T17:18:24.365Z,16.59
2023-05-19T17:20:53.329Z,16.72
2023-05-19T17:23:22.419Z,16.93
2023-05-19T17:25:56.146Z,16.89
2023-05-19T17:28:25.514Z,17.31
2023-05-19T17:30:54.570Z,16.97
2023-05-19T17:33:23.652Z,17.20
2023-05-19T17:35:52.657Z,17.13
2023-05-19T17:38:22.843Z,16.99
2023-05-19T17:40:51.858Z,16.93
2023-05-19T17:43:20.841Z,17.35
2023-05-19T17:45:50.089Z,17.28
2023-05-19T17:48:22.025Z,17.49
2023-05-19T17:50:51.324Z,17.77
2023-05-19T17:53:20.715Z,17.81
2023-05-19T17:56:00.915Z,17.90
2023-05-19T17:58:30.593Z,17.83
2023-05-19T18:00:59.955Z,17.91
2023-05-19T18:03:30.006Z,17.91
2023-05-19T18:06:00.321Z,18.11
2023-05-19T18:08:31.782Z,18.29
2023-05-19T18:11:01.805Z,18.42
2023-05-19T18:13:33.990Z,18.45
2023-05-19T18:16:03.212Z,18.15
2023-05-19T18:18:32.223Z,18.27
2023-05-19T18:21:01.404Z,18.51
2023-05-19T18:23:30.673Z,18.68
2023-05-19T18:26:05.758Z,18.28
2023-05-19T18:28:36.300Z,18.78
2023-05-19T18:31:06.467Z,18.72
2023-05-19T18:33:35.712Z,19.08
2023-05-19T18:36:04.954Z,18.74
2023-05-19T18:38:34.064Z,18.99
2023-05-19T18:41:03.150Z,19.16
2023-05-19T18:43:33.288Z,19.00
2023-05-19T18:46:02.804Z,19.31
2023-05-19T18:48:32.862Z,19.42
2023-05-19T18:51:04.737Z,19.12
2023-05-19T18:53:37.912Z,19.51
2023-05-19T18:56:07.548Z,19.21
2023-05-19T18:58:36.516Z,19.23
2023-05-19T19:01:09.355Z,19.69
2023-05-19T19:03:38.422Z,19.72
2023-05-19T19:06:07.476Z,19.95
2023-05-19T19:08:36.495Z,19.80
2023-05-19T19:11:09.984Z,19.77
2023-05-19T19:13:39.303Z,20.08
2023-05-19T19:16:08.463Z,19.71
2023-05-19T19:18:40.429Z,20.03
2023-05-19T19:21:09.595Z,20.43
2023-05-19T19:23:41.604Z,20.63
2023-05-19T19:26:10.841Z,20.67
2023-05-19T19:28:40.169Z,20.48
2023-05-19T19:31:09.327Z,20.79
2023-05-19T19:33:38.366Z,21.00
2023-05-19T19:36:12.158Z,20.85
2023-05-19T19:38:41.364Z,20.81
2023-05-19T19:41:10.343Z,20.97
2023-05-19T19:43:39.353Z,21.00
2023-05-19T19:46:09.923Z,21.15
2023-05-19T19:48:39.040Z,20.96
2023-05-19T19:51:10.814Z,21.20
2023-05-19T19:53:42.622Z,21.23
2023-05-19T19:56:11.779Z,21.74
2023-05-19T19:58:40.805Z,21.84
2023-05-19T20:01:16.710Z,22.16
2023-05-19T20:03:45.837Z,21.57
2023-05-19T20:06:15.189Z,21.71
2023-05-19T20:08:44.298Z,21.25
2023-05-19T20:11:13.248Z,21.47
2023-05-19T20:13:42.389Z,22.04
2023-05-19T20:16:11.652Z,21.87
2023-05-19T20:18:41.444Z,22.38
2023-05-19T20:21:10.504Z,22.70
2023-05-19T20:23:42.743Z,22.11
2023-05-19T20:26:13.462Z,22.17
2023-05-19T20:28:43.338Z,22.30
2023-05-19T20:31:12.273Z,21.80
2023-05-19T20:33:41.423Z,22.28
2023-05-19T20:36:11.738Z,22.09
2023-05-19T20:38:41.271Z,22.27
2023-05-19T20:41:10.280Z,23.12
2023-05-19T20:43:39.272Z,22.52
2023-05-19T20:46:08.449Z,21.91
2023-05-19T20:48:37.457Z,22.28
2023-05-19T20:51:06.894Z,22.26
2023-05-19T20:53:36.082Z,22.47
2023-05-19T20:56:07.579Z,22.91
2023-05-19T20:58:36.539Z,23.30
2023-05-19T21:01:05.989Z,23.05
2023-05-19T21:03:35.143Z,23.09
2023-05-19T21:06:04.417Z,22.62
2023-05-19T21:08:33.699Z,23.25
2023-05-19T21:11:02.796Z,23.70
2023-05-19T21:13:32.068Z,23.39
2023-05-19T21:16:02.022Z,23.32
2023-05-19T21:18:31.102Z,23.74
2023-05-19T21:21:04.335Z,23.87
2023-05-19T21:23:33.508Z,23.71
2023-05-19T21:26:02.810Z,23.63
2023-05-19T21:28:32.182Z,23.79
2023-05-19T21:31:01.628Z,24.64
2023-05-19T21:33:30.951Z,25.38
2023-05-19T21:36:01.263Z,24.18
2023-05-19T21:38:30.500Z,24.98
2023-05-19T21:40:59.405Z,24.67
2023-05-19T21:43:28.849Z,23.84
2023-05-19T21:45:58.127Z,23.53
2023-05-19T21:48:27.413Z,23.91
2023-05-19T21:50:56.783Z,23.91
2023-05-19T21:53:26.709Z,24.60
2023-05-19T21:55:56.137Z,24.42
2023-05-19T21:58:27.955Z,24.97
2023-05-19T22:00:58.136Z,25.17
2023-05-19T22:03:27.600Z,25.48
2023-05-19T22:05:56.755Z,25.96
2023-05-19T22:08:26.941Z,26.17
2023-05-19T22:10:56.564Z,26.23
2023-05-19T22:13:25.820Z,26.22
2023-05-19T22:15:55.229Z,26.16
2023-05-19T22:18:25.483Z,26.35
2023-05-19T22:20:57.792Z,26.54
2023-05-19T22:23:27.125Z,26.05
2023-05-19T22:25:56.329Z,26.45
2023-05-19T22:28:26.291Z,26.78
2023-05-19T22:30:55.668Z,26.67
2023-05-19T22:33:25.003Z,26.21
2023-05-19T22:35:57.167Z,26.72
2023-05-19T22:38:26.706Z,26.60
2023-05-19T22:40:55.854Z,26.81
2023-05-19T22:43:26.002Z,26.98
2023-05-19T22:45:59.314Z,26.86
2023-05-19T22:48:28.622Z,26.67
2023-05-19T22:50:57.684Z,26.57
2023-05-19T22:53:26.709Z,25.84
2023-05-19T22:55:55.747Z,25.61
2023-05-19T22:58:27.776Z,26.46
2023-05-19T23:00:57.087Z,26.44
2023-05-19T23:03:29.284Z,27.04
2023-05-19T23:05:58.578Z,27.38
2023-05-19T23:08:27.553Z,27.48
2023-05-19T23:11:03.990Z,27.58
2023-05-19T23:13:38.263Z,27.32
2023-05-19T23:16:08.523Z,27.54
2023-05-19T23:18:37.640Z,27.36
2023-05-19T23:21:06.516Z,27.63
2023-05-19T23:23:37.551Z,27.23
2023-05-19T23:26:06.730Z,27.71
2023-05-19T23:28:36.554Z,27.50
2023-05-19T23:31:05.885Z,27.68
2023-05-19T23:33:34.921Z,27.64
2023-05-19T23:36:08.614Z,27.72
2023-05-19T23:38:38.639Z,27.66
2023-05-19T23:41:07.794Z,27.58
2023-05-19T23:43:36.790Z,27.47
2023-05-19T23:46:06.149Z,27.38
2023-05-19T23:48:36.402Z,27.44
2023-05-19T23:51:05.575Z,27.48
2023-05-19T23:53:34.722Z,27.37
2023-05-19T23:56:03.716Z,27.42
2023-05-19T23:58:32.775Z,27.42
